Terminal Aerodrome Forecast
Issued by NWS

Home | Current Version | Previous Version | Text Only | Print | Product List | Glossary On
Versions: 1 2 3 4 5 6 7 8 9 10 11 12 13 14 15 16 17
501
FTUS43 KABR 181720
TAFPIR
TAF
KPIR 181720Z 1818/1918 24012G21KT P6SM BKN150
     FM190000 25010KT P6SM BKN200
     FM190600 29010KT P6SM SCT200
     FM191100 30006KT P6SM SCT080=

USA.gov is the U.S. government's official web portal to all federal, state and local government web resources and services.